sensor_id;sensor_type;location;lat;lon;timestamp;P1;durP1;ratioP1;P2;durP2;ratioP2
78646;SDS011;67961;43.460;3.762;2023-04-24T00:00:11;2.83;;;1.60;;
78646;SDS011;67961;43.460;3.762;2023-04-24T00:02:39;2.15;;;1.60;;
78646;SDS011;67961;43.460;3.762;2023-04-24T00:05:06;1.98;;;1.77;;
78646;SDS011;67961;43.460;3.762;2023-04-24T00:07:33;1.88;;;1.63;;
78646;SDS011;67961;43.460;3.762;2023-04-24T00:09:59;2.13;;;1.60;;
78646;SDS011;67961;43.460;3.762;2023-04-24T00:12:25;2.00;;;1.77;;
78646;SDS011;67961;43.460;3.762;2023-04-24T00:14:51;2.72;;;1.80;;
78646;SDS011;67961;43.460;3.762;2023-04-24T00:17:18;3.67;;;1.95;;
78646;SDS011;67961;43.460;3.762;2023-04-24T00:19:45;2.88;;;1.80;;
78646;SDS011;67961;43.460;3.762;2023-04-24T00:22:11;4.10;;;1.58;;
78646;SDS011;67961;43.460;3.762;2023-04-24T00:24:38;3.92;;;1.67;;
78646;SDS011;67961;43.460;3.762;2023-04-24T00:27:06;4.47;;;1.95;;
78646;SDS011;67961;43.460;3.762;2023-04-24T00:29:32;4.60;;;1.83;;
78646;SDS011;67961;43.460;3.762;2023-04-24T00:31:58;5.07;;;2.22;;
78646;SDS011;67961;43.460;3.762;2023-04-24T00:34:23;5.60;;;2.15;;
78646;SDS011;67961;43.460;3.762;2023-04-24T00:36:49;6.68;;;1.98;;
78646;SDS011;67961;43.460;3.762;2023-04-24T00:39:17;7.93;;;2.22;;
78646;SDS011;67961;43.460;3.762;2023-04-24T00:41:44;3.30;;;1.70;;
78646;SDS011;67961;43.460;3.762;2023-04-24T00:44:11;5.40;;;1.85;;
78646;SDS011;67961;43.460;3.762;2023-04-24T00:46:36;4.88;;;1.73;;
78646;SDS011;67961;43.460;3.762;2023-04-24T00:49:02;7.28;;;2.53;;
78646;SDS011;67961;43.460;3.762;2023-04-24T00:51:29;7.35;;;2.53;;
78646;SDS011;67961;43.460;3.762;2023-04-24T00:53:55;5.43;;;2.10;;
78646;SDS011;67961;43.460;3.762;2023-04-24T00:56:21;4.78;;;1.85;;
78646;SDS011;67961;43.460;3.762;2023-04-24T00:58:48;5.22;;;2.20;;
78646;SDS011;67961;43.460;3.762;2023-04-24T01:01:14;5.70;;;1.77;;
78646;SDS011;67961;43.460;3.762;2023-04-24T01:03:40;6.22;;;2.30;;
78646;SDS011;67961;43.460;3.762;2023-04-24T01:06:06;8.68;;;3.03;;
78646;SDS011;67961;43.460;3.762;2023-04-24T01:08:32;4.47;;;1.80;;
78646;SDS011;67961;43.460;3.762;2023-04-24T01:10:59;4.97;;;1.80;;
78646;SDS011;67961;43.460;3.762;2023-04-24T01:13:28;6.60;;;2.35;;
78646;SDS011;67961;43.460;3.762;2023-04-24T01:15:54;6.85;;;1.95;;
78646;SDS011;67961;43.460;3.762;2023-04-24T01:18:20;3.50;;;1.75;;
78646;SDS011;67961;43.460;3.762;2023-04-24T01:20:46;4.65;;;1.95;;
78646;SDS011;67961;43.460;3.762;2023-04-24T01:23:15;3.72;;;1.70;;
78646;SDS011;67961;43.460;3.762;2023-04-24T01:25:41;5.28;;;2.00;;
78646;SDS011;67961;43.460;3.762;2023-04-24T01:28:07;3.35;;;1.67;;
78646;SDS011;67961;43.460;3.762;2023-04-24T01:30:32;4.18;;;1.83;;
78646;SDS011;67961;43.460;3.762;2023-04-24T01:32:58;3.13;;;1.33;;
78646;SDS011;67961;43.460;3.762;2023-04-24T01:35:24;8.27;;;1.80;;
78646;SDS011;67961;43.460;3.762;2023-04-24T01:37:50;6.82;;;2.05;;
78646;SDS011;67961;43.460;3.762;2023-04-24T01:40:16;4.82;;;2.13;;
78646;SDS011;67961;43.460;3.762;2023-04-24T01:42:41;3.67;;;1.85;;
78646;SDS011;67961;43.460;3.762;2023-04-24T01:45:07;7.53;;;2.00;;
78646;SDS011;67961;43.460;3.762;2023-04-24T01:47:36;7.57;;;1.98;;
78646;SDS011;67961;43.460;3.762;2023-04-24T01:50:03;3.55;;;1.80;;
78646;SDS011;67961;43.460;3.762;2023-04-24T01:52:30;7.82;;;2.05;;
78646;SDS011;67961;43.460;3.762;2023-04-24T01:54:59;6.43;;;1.95;;
78646;SDS011;67961;43.460;3.762;2023-04-24T01:57:25;7.65;;;2.42;;
78646;SDS011;67961;43.460;3.762;2023-04-24T01:59:51;4.43;;;1.73;;
78646;SDS011;67961;43.460;3.762;2023-04-24T02:02:17;7.10;;;2.83;;
78646;SDS011;67961;43.460;3.762;2023-04-24T02:04:42;9.23;;;2.38;;
78646;SDS011;67961;43.460;3.762;2023-04-24T02:07:11;8.52;;;2.60;;
78646;SDS011;67961;43.460;3.762;2023-04-24T02:09:37;6.82;;;1.85;;
78646;SDS011;67961;43.460;3.762;2023-04-24T02:12:03;5.53;;;2.10;;
78646;SDS011;67961;43.460;3.762;2023-04-24T02:14:28;6.32;;;2.00;;
78646;SDS011;67961;43.460;3.762;2023-04-24T02:16:54;8.50;;;2.20;;
78646;SDS011;67961;43.460;3.762;2023-04-24T02:19:19;9.43;;;3.25;;
78646;SDS011;67961;43.460;3.762;2023-04-24T02:21:45;8.80;;;2.80;;
78646;SDS011;67961;43.460;3.762;2023-04-24T02:24:11;5.97;;;2.25;;
78646;SDS011;67961;43.460;3.762;2023-04-24T02:26:36;8.27;;;2.63;;
78646;SDS011;67961;43.460;3.762;2023-04-24T02:29:02;4.45;;;2.25;;
78646;SDS011;67961;43.460;3.762;2023-04-24T02:31:27;8.73;;;2.45;;
78646;SDS011;67961;43.460;3.762;2023-04-24T02:33:53;9.73;;;2.55;;
78646;SDS011;67961;43.460;3.762;2023-04-24T02:36:19;9.23;;;2.45;;
78646;SDS011;67961;43.460;3.762;2023-04-24T02:38:44;9.00;;;2.75;;
78646;SDS011;67961;43.460;3.762;2023-04-24T02:41:10;10.48;;;2.75;;
78646;SDS011;67961;43.460;3.762;2023-04-24T02:43:36;8.43;;;2.40;;
78646;SDS011;67961;43.460;3.762;2023-04-24T02:46:01;9.73;;;2.47;;
78646;SDS011;67961;43.460;3.762;2023-04-24T02:48:27;7.90;;;2.80;;
78646;SDS011;67961;43.460;3.762;2023-04-24T02:50:53;8.50;;;2.47;;
78646;SDS011;67961;43.460;3.762;2023-04-24T02:53:19;10.13;;;2.33;;
78646;SDS011;67961;43.460;3.762;2023-04-24T02:55:45;9.77;;;2.40;;
78646;SDS011;67961;43.460;3.762;2023-04-24T02:58:11;10.52;;;2.67;;
78646;SDS011;67961;43.460;3.762;2023-04-24T03:00:38;7.25;;;2.50;;
78646;SDS011;67961;43.460;3.762;2023-04-24T03:03:04;12.35;;;3.80;;
78646;SDS011;67961;43.460;3.762;2023-04-24T03:05:30;7.18;;;2.28;;
78646;SDS011;67961;43.460;3.762;2023-04-24T03:07:56;10.30;;;2.63;;
78646;SDS011;67961;43.460;3.762;2023-04-24T03:10:22;10.75;;;2.38;;
78646;SDS011;67961;43.460;3.762;2023-04-24T03:12:48;8.48;;;2.35;;
78646;SDS011;67961;43.460;3.762;2023-04-24T03:15:13;6.95;;;2.33;;
78646;SDS011;67961;43.460;3.762;2023-04-24T03:17:39;10.45;;;2.20;;
78646;SDS011;67961;43.460;3.762;2023-04-24T03:20:05;5.55;;;2.20;;
78646;SDS011;67961;43.460;3.762;2023-04-24T03:22:33;7.70;;;2.35;;
78646;SDS011;67961;43.460;3.762;2023-04-24T03:24:58;9.27;;;2.80;;
78646;SDS011;67961;43.460;3.762;2023-04-24T03:27:24;11.25;;;3.55;;
78646;SDS011;67961;43.460;3.762;2023-04-24T03:29:50;8.57;;;2.40;;
78646;SDS011;67961;43.460;3.762;2023-04-24T03:32:20;9.07;;;2.15;;
78646;SDS011;67961;43.460;3.762;2023-04-24T03:34:49;8.07;;;2.55;;
78646;SDS011;67961;43.460;3.762;2023-04-24T03:37:15;7.45;;;2.40;;
78646;SDS011;67961;43.460;3.762;2023-04-24T03:39:42;10.43;;;2.58;;
78646;SDS011;67961;43.460;3.762;2023-04-24T03:42:08;9.93;;;2.60;;
78646;SDS011;67961;43.460;3.762;2023-04-24T03:44:36;10.63;;;3.00;;
78646;SDS011;67961;43.460;3.762;2023-04-24T03:47:02;7.20;;;2.00;;
78646;SDS011;67961;43.460;3.762;2023-04-24T03:49:28;9.93;;;2.55;;
78646;SDS011;67961;43.460;3.762;2023-04-24T03:51:53;8.23;;;2.08;;
78646;SDS011;67961;43.460;3.762;2023-04-24T03:54:19;10.73;;;2.92;;
78646;SDS011;67961;43.460;3.762;2023-04-24T03:56:45;9.90;;;3.25;;
78646;SDS011;67961;43.460;3.762;2023-04-24T03:59:11;5.97;;;2.05;;
78646;SDS011;67961;43.460;3.762;2023-04-24T04:01:36;9.45;;;2.63;;
78646;SDS011;67961;43.460;3.762;2023-04-24T04:04:03;6.95;;;2.50;;
78646;SDS011;67961;43.460;3.762;2023-04-24T04:06:29;7.93;;;2.40;;
78646;SDS011;67961;43.460;3.762;2023-04-24T04:08:56;8.88;;;2.67;;
78646;SDS011;67961;43.460;3.762;2023-04-24T04:11:22;8.27;;;2.72;;
78646;SDS011;67961;43.460;3.762;2023-04-24T04:13:47;7.40;;;2.30;;
78646;SDS011;67961;43.460;3.762;2023-04-24T04:16:13;6.18;;;1.80;;
78646;SDS011;67961;43.460;3.762;2023-04-24T04:18:41;9.88;;;2.53;;
78646;SDS011;67961;43.460;3.762;2023-04-24T04:21:07;6.82;;;2.88;;
78646;SDS011;67961;43.460;3.762;2023-04-24T04:23:33;8.70;;;2.50;;
78646;SDS011;67961;43.460;3.762;2023-04-24T04:25:59;9.43;;;2.58;;
78646;SDS011;67961;43.460;3.762;2023-04-24T04:28:24;8.60;;;2.30;;
78646;SDS011;67961;43.460;3.762;2023-04-24T04:30:51;8.27;;;2.33;;
78646;SDS011;67961;43.460;3.762;2023-04-24T04:33:20;7.68;;;2.53;;
78646;SDS011;67961;43.460;3.762;2023-04-24T04:35:47;10.45;;;2.63;;
78646;SDS011;67961;43.460;3.762;2023-04-24T04:38:17;10.23;;;2.72;;
78646;SDS011;67961;43.460;3.762;2023-04-24T04:40:43;11.23;;;3.17;;
78646;SDS011;67961;43.460;3.762;2023-04-24T04:43:09;9.32;;;2.40;;
78646;SDS011;67961;43.460;3.762;2023-04-24T04:45:36;6.95;;;2.40;;
78646;SDS011;67961;43.460;3.762;2023-04-24T04:48:04;10.32;;;2.75;;
78646;SDS011;67961;43.460;3.762;2023-04-24T04:50:29;6.32;;;2.17;;
78646;SDS011;67961;43.460;3.762;2023-04-24T04:52:55;6.00;;;1.90;;
78646;SDS011;67961;43.460;3.762;2023-04-24T04:55:21;6.15;;;2.05;;
78646;SDS011;67961;43.460;3.762;2023-04-24T04:57:47;6.60;;;2.38;;
78646;SDS011;67961;43.460;3.762;2023-04-24T05:00:13;7.50;;;2.45;;
78646;SDS011;67961;43.460;3.762;2023-04-24T05:02:39;5.20;;;2.10;;
78646;SDS011;67961;43.460;3.762;2023-04-24T05:05:05;6.20;;;2.53;;
78646;SDS011;67961;43.460;3.762;2023-04-24T05:07:32;7.57;;;2.95;;
78646;SDS011;67961;43.460;3.762;2023-04-24T05:09:57;4.07;;;2.00;;
78646;SDS011;67961;43.460;3.762;2023-04-24T05:12:23;5.65;;;2.13;;
78646;SDS011;67961;43.460;3.762;2023-04-24T05:14:49;5.35;;;2.78;;
78646;SDS011;67961;43.460;3.762;2023-04-24T05:17:15;6.57;;;2.53;;
78646;SDS011;67961;43.460;3.762;2023-04-24T05:19:41;5.07;;;2.28;;
78646;SDS011;67961;43.460;3.762;2023-04-24T05:22:07;6.38;;;2.38;;
78646;SDS011;67961;43.460;3.762;2023-04-24T05:24:33;9.43;;;2.83;;
78646;SDS011;67961;43.460;3.762;2023-04-24T05:26:59;6.28;;;2.20;;
78646;SDS011;67961;43.460;3.762;2023-04-24T05:29:25;7.65;;;2.30;;
78646;SDS011;67961;43.460;3.762;2023-04-24T05:31:51;6.28;;;3.28;;
78646;SDS011;67961;43.460;3.762;2023-04-24T05:34:17;6.22;;;2.60;;
78646;SDS011;67961;43.460;3.762;2023-04-24T05:36:43;3.88;;;2.35;;
78646;SDS011;67961;43.460;3.762;2023-04-24T05:39:11;4.90;;;2.15;;
78646;SDS011;67961;43.460;3.762;2023-04-24T05:41:37;5.93;;;2.17;;
78646;SDS011;67961;43.460;3.762;2023-04-24T05:44:02;8.90;;;2.17;;
78646;SDS011;67961;43.460;3.762;2023-04-24T05:46:28;4.43;;;2.13;;
78646;SDS011;67961;43.460;3.762;2023-04-24T05:48:54;6.43;;;2.22;;
78646;SDS011;67961;43.460;3.762;2023-04-24T05:51:19;7.88;;;2.25;;
78646;SDS011;67961;43.460;3.762;2023-04-24T05:53:45;6.28;;;2.33;;
78646;SDS011;67961;43.460;3.762;2023-04-24T05:56:11;11.18;;;2.58;;
78646;SDS011;67961;43.460;3.762;2023-04-24T05:58:36;6.30;;;2.03;;
78646;SDS011;67961;43.460;3.762;2023-04-24T06:01:02;5.13;;;2.17;;
78646;SDS011;67961;43.460;3.762;2023-04-24T06:03:28;5.93;;;2.13;;
78646;SDS011;67961;43.460;3.762;2023-04-24T06:05:54;9.85;;;2.40;;
78646;SDS011;67961;43.460;3.762;2023-04-24T06:08:19;10.65;;;2.80;;
78646;SDS011;67961;43.460;3.762;2023-04-24T06:10:45;6.60;;;2.42;;
78646;SDS011;67961;43.460;3.762;2023-04-24T06:13:11;8.05;;;2.50;;
78646;SDS011;67961;43.460;3.762;2023-04-24T06:15:37;8.13;;;2.40;;
78646;SDS011;67961;43.460;3.762;2023-04-24T06:18:03;9.52;;;3.17;;
78646;SDS011;67961;43.460;3.762;2023-04-24T06:20:29;6.80;;;2.00;;
78646;SDS011;67961;43.460;3.762;2023-04-24T06:22:54;9.80;;;2.50;;
78646;SDS011;67961;43.460;3.762;2023-04-24T06:25:20;6.47;;;1.92;;
78646;SDS011;67961;43.460;3.762;2023-04-24T06:27:46;7.10;;;2.30;;
78646;SDS011;67961;43.460;3.762;2023-04-24T06:30:11;8.45;;;2.47;;
78646;SDS011;67961;43.460;3.762;2023-04-24T06:32:37;5.63;;;2.15;;
78646;SDS011;67961;43.460;3.762;2023-04-24T06:35:03;10.35;;;2.67;;
78646;SDS011;67961;43.460;3.762;2023-04-24T06:37:29;9.27;;;2.25;;
78646;SDS011;67961;43.460;3.762;2023-04-24T06:39:55;5.60;;;2.38;;
78646;SDS011;67961;43.460;3.762;2023-04-24T06:42:20;8.75;;;2.63;;
78646;SDS011;67961;43.460;3.762;2023-04-24T06:44:47;6.15;;;2.10;;
78646;SDS011;67961;43.460;3.762;2023-04-24T06:47:12;6.75;;;2.55;;
78646;SDS011;67961;43.460;3.762;2023-04-24T06:49:41;7.13;;;2.55;;
78646;SDS011;67961;43.460;3.762;2023-04-24T06:52:07;6.65;;;2.50;;
78646;SDS011;67961;43.460;3.762;2023-04-24T06:54:33;7.65;;;2.60;;
78646;SDS011;67961;43.460;3.762;2023-04-24T06:56:59;7.97;;;2.72;;
78646;SDS011;67961;43.460;3.762;2023-04-24T06:59:28;7.18;;;2.58;;
78646;SDS011;67961;43.460;3.762;2023-04-24T07:01:54;7.80;;;2.15;;
78646;SDS011;67961;43.460;3.762;2023-04-24T07:04:20;12.55;;;2.58;;
78646;SDS011;67961;43.460;3.762;2023-04-24T07:06:46;9.15;;;3.25;;
78646;SDS011;67961;43.460;3.762;2023-04-24T07:09:14;10.65;;;2.35;;
78646;SDS011;67961;43.460;3.762;2023-04-24T07:11:41;8.35;;;2.33;;
78646;SDS011;67961;43.460;3.762;2023-04-24T07:14:07;4.75;;;2.13;;
78646;SDS011;67961;43.460;3.762;2023-04-24T07:16:33;5.50;;;2.63;;
78646;SDS011;67961;43.460;3.762;2023-04-24T07:18:59;8.57;;;2.72;;
78646;SDS011;67961;43.460;3.762;2023-04-24T07:21:25;5.22;;;2.10;;
78646;SDS011;67961;43.460;3.762;2023-04-24T07:23:52;8.45;;;2.92;;
78646;SDS011;67961;43.460;3.762;2023-04-24T07:26:17;7.15;;;2.15;;
78646;SDS011;67961;43.460;3.762;2023-04-24T07:28:44;7.75;;;2.00;;
78646;SDS011;67961;43.460;3.762;2023-04-24T07:31:10;4.57;;;2.00;;
78646;SDS011;67961;43.460;3.762;2023-04-24T07:33:36;6.13;;;1.80;;
78646;SDS011;67961;43.460;3.762;2023-04-24T07:36:02;3.80;;;1.90;;
78646;SDS011;67961;43.460;3.762;2023-04-24T07:38:32;6.10;;;2.03;;
78646;SDS011;67961;43.460;3.762;2023-04-24T07:40:57;5.20;;;2.20;;
78646;SDS011;67961;43.460;3.762;2023-04-24T07:43:23;6.43;;;2.05;;
78646;SDS011;67961;43.460;3.762;2023-04-24T07:45:52;6.25;;;2.10;;
78646;SDS011;67961;43.460;3.762;2023-04-24T07:48:18;3.53;;;1.60;;
78646;SDS011;67961;43.460;3.762;2023-04-24T07:50:44;3.30;;;1.75;;
78646;SDS011;67961;43.460;3.762;2023-04-24T07:53:10;16.00;;;3.60;;
78646;SDS011;67961;43.460;3.762;2023-04-24T07:55:36;9.20;;;2.85;;
78646;SDS011;67961;43.460;3.762;2023-04-24T07:58:01;4.90;;;1.90;;
78646;SDS011;67961;43.460;3.762;2023-04-24T08:00:27;10.13;;;2.63;;
78646;SDS011;67961;43.460;3.762;2023-04-24T08:02:53;5.10;;;2.13;;
78646;SDS011;67961;43.460;3.762;2023-04-24T08:05:18;7.85;;;2.15;;
78646;SDS011;67961;43.460;3.762;2023-04-24T08:07:45;5.28;;;1.92;;
78646;SDS011;67961;43.460;3.762;2023-04-24T08:10:13;5.53;;;1.85;;
78646;SDS011;67961;43.460;3.762;2023-04-24T08:12:39;8.00;;;2.55;;
78646;SDS011;67961;43.460;3.762;2023-04-24T08:15:06;4.28;;;1.88;;
78646;SDS011;67961;43.460;3.762;2023-04-24T08:17:32;5.30;;;1.83;;
78646;SDS011;67961;43.460;3.762;2023-04-24T08:19:58;6.97;;;2.05;;
78646;SDS011;67961;43.460;3.762;2023-04-24T08:22:27;6.07;;;1.73;;
78646;SDS011;67961;43.460;3.762;2023-04-24T08:24:53;6.00;;;1.63;;
78646;SDS011;67961;43.460;3.762;2023-04-24T08:27:19;3.85;;;1.63;;
78646;SDS011;67961;43.460;3.762;2023-04-24T08:29:45;6.10;;;2.35;;
78646;SDS011;67961;43.460;3.762;2023-04-24T08:32:10;7.38;;;2.08;;
78646;SDS011;67961;43.460;3.762;2023-04-24T08:34:36;4.30;;;1.65;;
78646;SDS011;67961;43.460;3.762;2023-04-24T08:37:02;3.60;;;1.80;;
78646;SDS011;67961;43.460;3.762;2023-04-24T08:39:28;3.85;;;2.10;;
78646;SDS011;67961;43.460;3.762;2023-04-24T08:41:54;4.07;;;2.08;;
78646;SDS011;67961;43.460;3.762;2023-04-24T08:44:20;6.78;;;1.98;;
78646;SDS011;67961;43.460;3.762;2023-04-24T08:46:47;4.75;;;1.90;;
78646;SDS011;67961;43.460;3.762;2023-04-24T08:49:14;4.38;;;1.92;;
78646;SDS011;67961;43.460;3.762;2023-04-24T08:51:41;4.82;;;1.95;;
78646;SDS011;67961;43.460;3.762;2023-04-24T08:54:07;5.07;;;1.63;;
78646;SDS011;67961;43.460;3.762;2023-04-24T08:56:34;6.78;;;2.10;;
78646;SDS011;67961;43.460;3.762;2023-04-24T08:59:04;4.18;;;1.58;;
78646;SDS011;67961;43.460;3.762;2023-04-24T09:01:34;5.35;;;2.00;;
78646;SDS011;67961;43.460;3.762;2023-04-24T09:04:02;4.13;;;1.33;;
78646;SDS011;67961;43.460;3.762;2023-04-24T09:06:28;3.88;;;1.80;;
78646;SDS011;67961;43.460;3.762;2023-04-24T09:08:55;2.45;;;1.00;;
78646;SDS011;67961;43.460;3.762;2023-04-24T09:11:24;5.15;;;1.50;;
78646;SDS011;67961;43.460;3.762;2023-04-24T09:13:50;3.83;;;1.20;;
78646;SDS011;67961;43.460;3.762;2023-04-24T09:16:16;2.72;;;1.35;;
78646;SDS011;67961;43.460;3.762;2023-04-24T09:18:43;2.85;;;1.27;;
78646;SDS011;67961;43.460;3.762;2023-04-24T09:21:09;5.97;;;1.65;;
78646;SDS011;67961;43.460;3.762;2023-04-24T09:23:35;1.98;;;1.00;;
78646;SDS011;67961;43.460;3.762;2023-04-24T09:26:01;1.65;;;1.25;;
78646;SDS011;67961;43.460;3.762;2023-04-24T09:28:35;2.00;;;1.25;;
78646;SDS011;67961;43.460;3.762;2023-04-24T09:31:03;2.30;;;1.38;;
78646;SDS011;67961;43.460;3.762;2023-04-24T09:33:33;1.70;;;1.15;;
78646;SDS011;67961;43.460;3.762;2023-04-24T09:35:59;1.67;;;1.30;;
78646;SDS011;67961;43.460;3.762;2023-04-24T09:38:37;2.85;;;1.52;;
78646;SDS011;67961;43.460;3.762;2023-04-24T09:41:07;3.78;;;1.45;;
78646;SDS011;67961;43.460;3.762;2023-04-24T09:43:38;3.85;;;1.70;;
78646;SDS011;67961;43.460;3.762;2023-04-24T09:46:04;1.40;;;1.00;;
78646;SDS011;67961;43.460;3.762;2023-04-24T09:50:58;4.28;;;1.73;;
78646;SDS011;67961;43.460;3.762;2023-04-24T09:53:26;1.80;;;1.00;;
78646;SDS011;67961;43.460;3.762;2023-04-24T09:55:52;2.67;;;1.35;;
78646;SDS011;67961;43.460;3.762;2023-04-24T09:58:24;3.78;;;1.30;;
78646;SDS011;67961;43.460;3.762;2023-04-24T10:03:22;1.95;;;1.20;;
78646;SDS011;67961;43.460;3.762;2023-04-24T10:05:54;3.28;;;1.27;;
78646;SDS011;67961;43.460;3.762;2023-04-24T10:08:23;2.60;;;1.20;;
78646;SDS011;67961;43.460;3.762;2023-04-24T10:10:49;2.30;;;1.20;;
78646;SDS011;67961;43.460;3.762;2023-04-24T10:13:15;2.22;;;1.20;;
78646;SDS011;67961;43.460;3.762;2023-04-24T10:15:42;1.77;;;1.20;;
78646;SDS011;67961;43.460;3.762;2023-04-24T10:18:08;2.38;;;1.30;;
78646;SDS011;67961;43.460;3.762;2023-04-24T10:20:36;1.75;;;1.15;;
78646;SDS011;67961;43.460;3.762;2023-04-24T10:23:05;3.10;;;1.00;;
78646;SDS011;67961;43.460;3.762;2023-04-24T10:25:32;4.13;;;1.30;;
78646;SDS011;67961;43.460;3.762;2023-04-24T10:27:59;3.20;;;1.10;;
78646;SDS011;67961;43.460;3.762;2023-04-24T10:30:27;2.60;;;1.13;;
78646;SDS011;67961;43.460;3.762;2023-04-24T10:33:00;2.42;;;1.10;;
78646;SDS011;67961;43.460;3.762;2023-04-24T10:35:39;1.20;;;0.90;;
78646;SDS011;67961;43.460;3.762;2023-04-24T10:38:11;2.25;;;1.30;;
78646;SDS011;67961;43.460;3.762;2023-04-24T10:40:38;2.65;;;1.20;;
78646;SDS011;67961;43.460;3.762;2023-04-24T10:43:04;1.38;;;1.27;;
78646;SDS011;67961;43.460;3.762;2023-04-24T10:45:33;1.30;;;1.20;;
78646;SDS011;67961;43.460;3.762;2023-04-24T10:53:17;1.75;;;1.17;;
78646;SDS011;67961;43.460;3.762;2023-04-24T10:58:22;1.77;;;0.98;;
78646;SDS011;67961;43.460;3.762;2023-04-24T11:01:00;3.45;;;1.50;;
78646;SDS011;67961;43.460;3.762;2023-04-24T11:03:26;3.88;;;1.33;;
78646;SDS011;67961;43.460;3.762;2023-04-24T11:06:07;0.98;;;0.90;;
78646;SDS011;67961;43.460;3.762;2023-04-24T11:08:42;3.33;;;1.00;;
78646;SDS011;67961;43.460;3.762;2023-04-24T11:11:10;2.53;;;1.02;;
78646;SDS011;67961;43.460;3.762;2023-04-24T11:21:44;1.00;;;1.00;;
78646;SDS011;67961;43.460;3.762;2023-04-24T11:24:26;0.85;;;0.85;;
78646;SDS011;67961;43.460;3.762;2023-04-24T11:26:56;1.10;;;1.00;;
78646;SDS011;67961;43.460;3.762;2023-04-24T11:29:38;0.80;;;0.80;;
78646;SDS011;67961;43.460;3.762;2023-04-24T11:34:49;1.52;;;1.00;;
78646;SDS011;67961;43.460;3.762;2023-04-24T11:37:19;0.93;;;0.93;;
78646;SDS011;67961;43.460;3.762;2023-04-24T11:39:45;3.13;;;1.23;;
78646;SDS011;67961;43.460;3.762;2023-04-24T11:42:13;2.03;;;1.38;;
78646;SDS011;67961;43.460;3.762;2023-04-24T11:44:41;2.25;;;1.05;;
78646;SDS011;67961;43.460;3.762;2023-04-24T11:47:08;2.97;;;1.13;;
78646;SDS011;67961;43.460;3.762;2023-04-24T11:49:36;1.55;;;1.02;;
78646;SDS011;67961;43.460;3.762;2023-04-24T11:52:02;2.78;;;1.35;;
78646;SDS011;67961;43.460;3.762;2023-04-24T11:54:28;1.73;;;1.05;;
78646;SDS011;67961;43.460;3.762;2023-04-24T11:56:55;1.15;;;1.00;;
78646;SDS011;67961;43.460;3.762;2023-04-24T11:59:21;1.42;;;1.20;;
78646;SDS011;67961;43.460;3.762;2023-04-24T12:01:47;3.63;;;1.45;;
78646;SDS011;67961;43.460;3.762;2023-04-24T12:04:14;1.85;;;1.10;;
78646;SDS011;67961;43.460;3.762;2023-04-24T12:07:02;2.80;;;1.27;;
78646;SDS011;67961;43.460;3.762;2023-04-24T12:09:28;2.53;;;1.48;;
78646;SDS011;67961;43.460;3.762;2023-04-24T12:12:05;1.95;;;1.30;;
78646;SDS011;67961;43.460;3.762;2023-04-24T12:14:31;1.85;;;1.20;;
78646;SDS011;67961;43.460;3.762;2023-04-24T12:16:57;1.77;;;1.02;;
78646;SDS011;67961;43.460;3.762;2023-04-24T12:19:23;1.67;;;1.00;;
78646;SDS011;67961;43.460;3.762;2023-04-24T12:22:02;1.88;;;1.10;;
78646;SDS011;67961;43.460;3.762;2023-04-24T12:24:30;0.98;;;0.98;;
78646;SDS011;67961;43.460;3.762;2023-04-24T12:26:56;1.92;;;1.13;;
78646;SDS011;67961;43.460;3.762;2023-04-24T12:29:23;2.22;;;1.10;;
78646;SDS011;67961;43.460;3.762;2023-04-24T12:31:53;1.33;;;0.98;;
78646;SDS011;67961;43.460;3.762;2023-04-24T12:34:23;3.50;;;1.58;;
78646;SDS011;67961;43.460;3.762;2023-04-24T12:36:50;2.08;;;1.23;;
78646;SDS011;67961;43.460;3.762;2023-04-24T12:39:20;1.67;;;1.05;;
78646;SDS011;67961;43.460;3.762;2023-04-24T12:44:31;2.72;;;1.67;;
78646;SDS011;67961;43.460;3.762;2023-04-24T12:46:59;1.73;;;1.13;;
78646;SDS011;67961;43.460;3.762;2023-04-24T12:49:25;1.65;;;1.17;;
78646;SDS011;67961;43.460;3.762;2023-04-24T12:51:51;1.63;;;1.00;;
78646;SDS011;67961;43.460;3.762;2023-04-24T12:54:17;2.72;;;1.45;;
78646;SDS011;67961;43.460;3.762;2023-04-24T12:56:42;2.90;;;1.50;;
78646;SDS011;67961;43.460;3.762;2023-04-24T12:59:08;2.38;;;1.63;;
78646;SDS011;67961;43.460;3.762;2023-04-24T13:01:34;2.53;;;1.45;;
78646;SDS011;67961;43.460;3.762;2023-04-24T13:03:59;3.05;;;1.10;;
78646;SDS011;67961;43.460;3.762;2023-04-24T13:06:25;3.22;;;1.42;;
78646;SDS011;67961;43.460;3.762;2023-04-24T13:08:51;1.65;;;0.98;;
78646;SDS011;67961;43.460;3.762;2023-04-24T13:11:17;2.65;;;1.23;;
78646;SDS011;67961;43.460;3.762;2023-04-24T13:13:43;1.88;;;1.20;;
78646;SDS011;67961;43.460;3.762;2023-04-24T13:16:09;1.35;;;0.93;;
78646;SDS011;67961;43.460;3.762;2023-04-24T13:18:34;2.00;;;1.33;;
78646;SDS011;67961;43.460;3.762;2023-04-24T13:21:00;3.38;;;1.90;;
78646;SDS011;67961;43.460;3.762;2023-04-24T13:23:26;2.33;;;1.20;;
78646;SDS011;67961;43.460;3.762;2023-04-24T13:25:52;4.28;;;1.40;;
78646;SDS011;67961;43.460;3.762;2023-04-24T13:28:20;2.13;;;1.20;;
78646;SDS011;67961;43.460;3.762;2023-04-24T13:30:46;1.45;;;1.30;;
78646;SDS011;67961;43.460;3.762;2023-04-24T13:33:13;2.17;;;1.50;;
78646;SDS011;67961;43.460;3.762;2023-04-24T13:35:39;3.78;;;1.60;;
78646;SDS011;67961;43.460;3.762;2023-04-24T13:38:04;3.92;;;1.50;;
78646;SDS011;67961;43.460;3.762;2023-04-24T13:40:31;1.90;;;1.15;;
78646;SDS011;67961;43.460;3.762;2023-04-24T13:42:57;3.35;;;1.30;;
78646;SDS011;67961;43.460;3.762;2023-04-24T13:45:23;3.72;;;1.58;;
78646;SDS011;67961;43.460;3.762;2023-04-24T13:47:49;3.15;;;1.30;;
78646;SDS011;67961;43.460;3.762;2023-04-24T13:50:15;2.53;;;1.20;;
78646;SDS011;67961;43.460;3.762;2023-04-24T13:52:40;2.28;;;1.25;;
78646;SDS011;67961;43.460;3.762;2023-04-24T13:55:06;3.22;;;1.60;;
78646;SDS011;67961;43.460;3.762;2023-04-24T13:57:32;3.30;;;1.30;;
78646;SDS011;67961;43.460;3.762;2023-04-24T13:59:58;3.33;;;1.73;;
78646;SDS011;67961;43.460;3.762;2023-04-24T14:02:28;3.67;;;1.63;;
78646;SDS011;67961;43.460;3.762;2023-04-24T14:04:54;2.50;;;1.35;;
78646;SDS011;67961;43.460;3.762;2023-04-24T14:07:20;3.22;;;1.42;;
78646;SDS011;67961;43.460;3.762;2023-04-24T14:09:46;2.25;;;1.35;;
78646;SDS011;67961;43.460;3.762;2023-04-24T14:12:12;4.43;;;1.23;;
78646;SDS011;67961;43.460;3.762;2023-04-24T14:14:39;1.90;;;1.20;;
78646;SDS011;67961;43.460;3.762;2023-04-24T14:17:04;2.47;;;1.42;;
78646;SDS011;67961;43.460;3.762;2023-04-24T14:19:30;2.53;;;1.30;;
78646;SDS011;67961;43.460;3.762;2023-04-24T14:21:56;3.00;;;1.60;;
78646;SDS011;67961;43.460;3.762;2023-04-24T14:24:23;2.63;;;1.38;;
78646;SDS011;67961;43.460;3.762;2023-04-24T14:26:49;4.78;;;1.38;;
78646;SDS011;67961;43.460;3.762;2023-04-24T14:29:14;7.63;;;1.75;;
78646;SDS011;67961;43.460;3.762;2023-04-24T14:31:41;2.70;;;1.50;;
78646;SDS011;67961;43.460;3.762;2023-04-24T14:34:07;3.00;;;1.30;;
78646;SDS011;67961;43.460;3.762;2023-04-24T14:36:33;2.30;;;1.33;;
78646;SDS011;67961;43.460;3.762;2023-04-24T14:38:58;3.75;;;1.73;;
78646;SDS011;67961;43.460;3.762;2023-04-24T14:41:24;2.75;;;1.20;;
78646;SDS011;67961;43.460;3.762;2023-04-24T14:43:50;2.33;;;1.25;;
78646;SDS011;67961;43.460;3.762;2023-04-24T14:46:15;2.45;;;1.17;;
78646;SDS011;67961;43.460;3.762;2023-04-24T14:48:41;3.47;;;1.45;;
78646;SDS011;67961;43.460;3.762;2023-04-24T14:51:07;2.40;;;1.30;;
78646;SDS011;67961;43.460;3.762;2023-04-24T14:53:32;1.85;;;1.20;;
78646;SDS011;67961;43.460;3.762;2023-04-24T14:55:58;5.82;;;1.40;;
78646;SDS011;67961;43.460;3.762;2023-04-24T14:58:24;2.25;;;1.40;;
78646;SDS011;67961;43.460;3.762;2023-04-24T15:00:49;2.63;;;1.38;;
78646;SDS011;67961;43.460;3.762;2023-04-24T15:03:17;2.67;;;1.50;;
78646;SDS011;67961;43.460;3.762;2023-04-24T15:05:43;1.95;;;1.27;;
78646;SDS011;67961;43.460;3.762;2023-04-24T15:08:09;2.55;;;1.52;;
78646;SDS011;67961;43.460;3.762;2023-04-24T15:10:35;4.13;;;1.40;;